sensor_id;sensor_type;location;lat;lon;timestamp;P1;durP1;ratioP1;P2;durP2;ratioP2
57191;SDS011;43052;52.588;13.396;2022-08-01T00:01:13;7.60;;;5.28;;
57191;SDS011;43052;52.588;13.396;2022-08-01T00:03:39;5.70;;;4.78;;
57191;SDS011;43052;52.588;13.396;2022-08-01T00:06:04;6.75;;;5.22;;
57191;SDS011;43052;52.588;13.396;2022-08-01T00:08:29;9.48;;;5.32;;
57191;SDS011;43052;52.588;13.396;2022-08-01T00:10:55;6.63;;;5.40;;
57191;SDS011;43052;52.588;13.396;2022-08-01T00:13:20;5.72;;;5.13;;
57191;SDS011;43052;52.588;13.396;2022-08-01T00:15:46;5.80;;;4.85;;
57191;SDS011;43052;52.588;13.396;2022-08-01T00:18:12;6.32;;;4.90;;
57191;SDS011;43052;52.588;13.396;2022-08-01T00:20:37;7.78;;;5.50;;
57191;SDS011;43052;52.588;13.396;2022-08-01T00:23:03;7.28;;;5.95;;
57191;SDS011;43052;52.588;13.396;2022-08-01T00:25:28;6.85;;;5.95;;
57191;SDS011;43052;52.588;13.396;2022-08-01T00:27:53;8.70;;;6.55;;
57191;SDS011;43052;52.588;13.396;2022-08-01T00:30:19;9.65;;;6.47;;
57191;SDS011;43052;52.588;13.396;2022-08-01T00:32:44;7.65;;;6.78;;
57191;SDS011;43052;52.588;13.396;2022-08-01T00:35:09;7.97;;;6.60;;
57191;SDS011;43052;52.588;13.396;2022-08-01T00:37:35;8.57;;;7.18;;
57191;SDS011;43052;52.588;13.396;2022-08-01T00:40:00;8.32;;;7.45;;
57191;SDS011;43052;52.588;13.396;2022-08-01T00:42:25;7.80;;;6.90;;
57191;SDS011;43052;52.588;13.396;2022-08-01T00:44:51;8.65;;;6.80;;
57191;SDS011;43052;52.588;13.396;2022-08-01T00:47:16;7.97;;;6.90;;
57191;SDS011;43052;52.588;13.396;2022-08-01T00:49:41;8.23;;;7.22;;
57191;SDS011;43052;52.588;13.396;2022-08-01T00:52:06;8.68;;;7.38;;
57191;SDS011;43052;52.588;13.396;2022-08-01T00:54:33;9.10;;;7.63;;
57191;SDS011;43052;52.588;13.396;2022-08-01T00:56:59;8.00;;;7.10;;
57191;SDS011;43052;52.588;13.396;2022-08-01T00:59:24;8.38;;;7.57;;
57191;SDS011;43052;52.588;13.396;2022-08-01T01:01:50;8.32;;;7.53;;
57191;SDS011;43052;52.588;13.396;2022-08-01T01:04:16;8.68;;;7.47;;
57191;SDS011;43052;52.588;13.396;2022-08-01T01:09:24;8.18;;;7.35;;
57191;SDS011;43052;52.588;13.396;2022-08-01T01:12:01;8.88;;;7.63;;
57191;SDS011;43052;52.588;13.396;2022-08-01T01:14:53;8.23;;;7.47;;
57191;SDS011;43052;52.588;13.396;2022-08-01T01:17:37;8.20;;;7.38;;
57191;SDS011;43052;52.588;13.396;2022-08-01T01:20:06;8.32;;;7.40;;
57191;SDS011;43052;52.588;13.396;2022-08-01T01:22:41;10.30;;;7.80;;
57191;SDS011;43052;52.588;13.396;2022-08-01T01:28:08;7.93;;;7.13;;
57191;SDS011;43052;52.588;13.396;2022-08-01T01:30:40;9.45;;;8.55;;
57191;SDS011;43052;52.588;13.396;2022-08-01T01:33:08;9.02;;;8.13;;
57191;SDS011;43052;52.588;13.396;2022-08-01T01:35:36;8.10;;;7.30;;
57191;SDS011;43052;52.588;13.396;2022-08-01T01:38:26;8.45;;;7.65;;
57191;SDS011;43052;52.588;13.396;2022-08-01T01:40:54;9.00;;;7.38;;
57191;SDS011;43052;52.588;13.396;2022-08-01T01:43:21;8.88;;;7.97;;
57191;SDS011;43052;52.588;13.396;2022-08-01T01:45:48;9.90;;;7.22;;
57191;SDS011;43052;52.588;13.396;2022-08-01T01:48:17;8.85;;;7.95;;
57191;SDS011;43052;52.588;13.396;2022-08-01T01:50:45;8.05;;;7.25;;
57191;SDS011;43052;52.588;13.396;2022-08-01T01:53:12;9.10;;;8.13;;
57191;SDS011;43052;52.588;13.396;2022-08-01T01:55:38;8.93;;;8.07;;
57191;SDS011;43052;52.588;13.396;2022-08-01T01:58:06;8.88;;;7.93;;
57191;SDS011;43052;52.588;13.396;2022-08-01T02:00:33;9.20;;;7.68;;
57191;SDS011;43052;52.588;13.396;2022-08-01T02:03:00;9.00;;;8.07;;
57191;SDS011;43052;52.588;13.396;2022-08-01T02:05:27;8.48;;;7.57;;
57191;SDS011;43052;52.588;13.396;2022-08-01T02:07:53;9.18;;;7.55;;
57191;SDS011;43052;52.588;13.396;2022-08-01T02:10:20;8.85;;;7.75;;
57191;SDS011;43052;52.588;13.396;2022-08-01T02:12:46;8.82;;;8.02;;
57191;SDS011;43052;52.588;13.396;2022-08-01T02:15:14;8.80;;;7.90;;
57191;SDS011;43052;52.588;13.396;2022-08-01T02:17:43;9.65;;;8.60;;
57191;SDS011;43052;52.588;13.396;2022-08-01T02:20:12;9.82;;;8.82;;
57191;SDS011;43052;52.588;13.396;2022-08-01T02:22:42;9.52;;;8.52;;
57191;SDS011;43052;52.588;13.396;2022-08-01T02:28:32;9.98;;;8.57;;
57191;SDS011;43052;52.588;13.396;2022-08-01T02:31:01;9.48;;;8.57;;
57191;SDS011;43052;52.588;13.396;2022-08-01T02:33:33;9.75;;;8.75;;
57191;SDS011;43052;52.588;13.396;2022-08-01T02:36:01;10.18;;;9.05;;
57191;SDS011;43052;52.588;13.396;2022-08-01T02:38:28;9.77;;;8.77;;
57191;SDS011;43052;52.588;13.396;2022-08-01T02:40:58;9.32;;;8.20;;
57191;SDS011;43052;52.588;13.396;2022-08-01T02:43:28;10.63;;;9.25;;
57191;SDS011;43052;52.588;13.396;2022-08-01T02:45:56;10.13;;;9.13;;
57191;SDS011;43052;52.588;13.396;2022-08-01T02:48:25;8.70;;;7.80;;
57191;SDS011;43052;52.588;13.396;2022-08-01T02:50:52;10.27;;;8.65;;
57191;SDS011;43052;52.588;13.396;2022-08-01T02:53:20;9.43;;;8.48;;
57191;SDS011;43052;52.588;13.396;2022-08-01T02:55:48;9.18;;;8.20;;
57191;SDS011;43052;52.588;13.396;2022-08-01T02:58:15;10.13;;;9.15;;
57191;SDS011;43052;52.588;13.396;2022-08-01T03:00:43;9.80;;;8.80;;
57191;SDS011;43052;52.588;13.396;2022-08-01T03:03:10;10.20;;;8.63;;
57191;SDS011;43052;52.588;13.396;2022-08-01T03:05:36;10.60;;;9.18;;
57191;SDS011;43052;52.588;13.396;2022-08-01T03:08:04;9.52;;;8.48;;
57191;SDS011;43052;52.588;13.396;2022-08-01T03:10:32;9.38;;;8.20;;
57191;SDS011;43052;52.588;13.396;2022-08-01T03:13:01;11.07;;;9.02;;
57191;SDS011;43052;52.588;13.396;2022-08-01T03:15:30;9.90;;;8.90;;
57191;SDS011;43052;52.588;13.396;2022-08-01T03:17:57;9.02;;;8.00;;
57191;SDS011;43052;52.588;13.396;2022-08-01T03:20:24;9.48;;;8.63;;
57191;SDS011;43052;52.588;13.396;2022-08-01T03:22:52;10.20;;;9.20;;
57191;SDS011;43052;52.588;13.396;2022-08-01T03:25:18;10.60;;;9.45;;
57191;SDS011;43052;52.588;13.396;2022-08-01T03:27:45;9.88;;;8.88;;
57191;SDS011;43052;52.588;13.396;2022-08-01T03:30:15;10.35;;;9.35;;
57191;SDS011;43052;52.588;13.396;2022-08-01T03:32:41;10.82;;;8.43;;
57191;SDS011;43052;52.588;13.396;2022-08-01T03:35:06;10.38;;;9.38;;
57191;SDS011;43052;52.588;13.396;2022-08-01T03:37:41;10.00;;;8.93;;
57191;SDS011;43052;52.588;13.396;2022-08-01T03:40:11;10.07;;;9.00;;
57191;SDS011;43052;52.588;13.396;2022-08-01T03:42:44;9.85;;;8.85;;
57191;SDS011;43052;52.588;13.396;2022-08-01T03:45:14;10.25;;;9.25;;
57191;SDS011;43052;52.588;13.396;2022-08-01T03:47:46;10.50;;;9.50;;
57191;SDS011;43052;52.588;13.396;2022-08-01T03:50:13;10.10;;;9.10;;
57191;SDS011;43052;52.588;13.396;2022-08-01T03:52:41;9.27;;;8.38;;
57191;SDS011;43052;52.588;13.396;2022-08-01T03:55:09;9.25;;;8.15;;
57191;SDS011;43052;52.588;13.396;2022-08-01T03:57:37;8.85;;;7.95;;
57191;SDS011;43052;52.588;13.396;2022-08-01T04:00:04;10.23;;;8.20;;
57191;SDS011;43052;52.588;13.396;2022-08-01T04:02:32;8.90;;;7.95;;
57191;SDS011;43052;52.588;13.396;2022-08-01T04:04:58;9.48;;;8.10;;
57191;SDS011;43052;52.588;13.396;2022-08-01T04:07:25;9.32;;;7.78;;
57191;SDS011;43052;52.588;13.396;2022-08-01T04:09:52;8.88;;;7.97;;
57191;SDS011;43052;52.588;13.396;2022-08-01T04:12:18;8.77;;;7.88;;
57191;SDS011;43052;52.588;13.396;2022-08-01T04:14:43;9.15;;;8.00;;
57191;SDS011;43052;52.588;13.396;2022-08-01T04:17:09;9.38;;;7.80;;
57191;SDS011;43052;52.588;13.396;2022-08-01T04:19:34;10.48;;;8.38;;
57191;SDS011;43052;52.588;13.396;2022-08-01T04:22:00;9.20;;;7.22;;
57191;SDS011;43052;52.588;13.396;2022-08-01T04:24:25;10.15;;;8.48;;
57191;SDS011;43052;52.588;13.396;2022-08-01T04:26:54;9.73;;;8.05;;
57191;SDS011;43052;52.588;13.396;2022-08-01T04:29:21;10.52;;;9.00;;
57191;SDS011;43052;52.588;13.396;2022-08-01T04:31:48;9.90;;;8.35;;
57191;SDS011;43052;52.588;13.396;2022-08-01T04:34:15;11.77;;;8.52;;
57191;SDS011;43052;52.588;13.396;2022-08-01T04:36:44;10.38;;;8.75;;
57191;SDS011;43052;52.588;13.396;2022-08-01T04:39:10;10.77;;;8.75;;
57191;SDS011;43052;52.588;13.396;2022-08-01T04:41:36;9.90;;;8.43;;
57191;SDS011;43052;52.588;13.396;2022-08-01T04:44:03;11.15;;;8.30;;
57191;SDS011;43052;52.588;13.396;2022-08-01T04:46:29;10.30;;;8.48;;
57191;SDS011;43052;52.588;13.396;2022-08-01T04:48:57;11.73;;;9.23;;
57191;SDS011;43052;52.588;13.396;2022-08-01T04:51:23;11.88;;;9.25;;
57191;SDS011;43052;52.588;13.396;2022-08-01T04:53:49;11.13;;;9.48;;
57191;SDS011;43052;52.588;13.396;2022-08-01T04:56:16;10.75;;;9.40;;
57191;SDS011;43052;52.588;13.396;2022-08-01T04:58:42;11.98;;;9.70;;
57191;SDS011;43052;52.588;13.396;2022-08-01T05:01:08;11.23;;;9.88;;
57191;SDS011;43052;52.588;13.396;2022-08-01T05:03:35;15.82;;;10.23;;
57191;SDS011;43052;52.588;13.396;2022-08-01T05:06:00;11.18;;;9.80;;
57191;SDS011;43052;52.588;13.396;2022-08-01T05:08:26;11.88;;;10.07;;
57191;SDS011;43052;52.588;13.396;2022-08-01T05:10:52;13.02;;;10.20;;
57191;SDS011;43052;52.588;13.396;2022-08-01T05:13:17;11.20;;;9.93;;
57191;SDS011;43052;52.588;13.396;2022-08-01T05:15:43;13.77;;;10.07;;
57191;SDS011;43052;52.588;13.396;2022-08-01T05:18:08;12.88;;;10.93;;
57191;SDS011;43052;52.588;13.396;2022-08-01T05:20:33;12.35;;;10.43;;
57191;SDS011;43052;52.588;13.396;2022-08-01T05:22:58;12.10;;;10.82;;
57191;SDS011;43052;52.588;13.396;2022-08-01T05:25:24;13.93;;;11.75;;
57191;SDS011;43052;52.588;13.396;2022-08-01T05:27:49;11.98;;;10.68;;
57191;SDS011;43052;52.588;13.396;2022-08-01T05:30:14;12.02;;;9.95;;
57191;SDS011;43052;52.588;13.396;2022-08-01T05:32:40;12.82;;;11.32;;
57191;SDS011;43052;52.588;13.396;2022-08-01T05:35:06;14.43;;;10.23;;
57191;SDS011;43052;52.588;13.396;2022-08-01T05:37:32;12.80;;;10.68;;
57191;SDS011;43052;52.588;13.396;2022-08-01T05:39:57;13.73;;;10.30;;
57191;SDS011;43052;52.588;13.396;2022-08-01T05:42:22;12.68;;;10.63;;
57191;SDS011;43052;52.588;13.396;2022-08-01T05:44:48;12.88;;;10.35;;
57191;SDS011;43052;52.588;13.396;2022-08-01T05:47:14;14.63;;;10.13;;
57191;SDS011;43052;52.588;13.396;2022-08-01T05:49:39;11.02;;;9.48;;
57191;SDS011;43052;52.588;13.396;2022-08-01T05:52:05;10.98;;;9.68;;
57191;SDS011;43052;52.588;13.396;2022-08-01T05:54:30;12.43;;;10.05;;
57191;SDS011;43052;52.588;13.396;2022-08-01T05:56:56;12.95;;;9.77;;
57191;SDS011;43052;52.588;13.396;2022-08-01T05:59:24;12.88;;;9.55;;
57191;SDS011;43052;52.588;13.396;2022-08-01T06:01:49;10.40;;;9.30;;
57191;SDS011;43052;52.588;13.396;2022-08-01T06:04:15;12.65;;;9.20;;
57191;SDS011;43052;52.588;13.396;2022-08-01T06:06:40;12.05;;;9.38;;
57191;SDS011;43052;52.588;13.396;2022-08-01T06:09:05;10.77;;;8.38;;
57191;SDS011;43052;52.588;13.396;2022-08-01T06:11:31;11.40;;;8.82;;
57191;SDS011;43052;52.588;13.396;2022-08-01T06:13:56;11.65;;;8.52;;
57191;SDS011;43052;52.588;13.396;2022-08-01T06:16:21;10.85;;;8.90;;
57191;SDS011;43052;52.588;13.396;2022-08-01T06:18:46;9.43;;;8.43;;
57191;SDS011;43052;52.588;13.396;2022-08-01T06:21:12;9.80;;;8.80;;
57191;SDS011;43052;52.588;13.396;2022-08-01T06:23:37;11.23;;;8.43;;
57191;SDS011;43052;52.588;13.396;2022-08-01T06:26:02;9.48;;;8.13;;
57191;SDS011;43052;52.588;13.396;2022-08-01T06:28:28;10.45;;;7.78;;
57191;SDS011;43052;52.588;13.396;2022-08-01T06:30:53;10.13;;;8.25;;
57191;SDS011;43052;52.588;13.396;2022-08-01T06:33:19;9.48;;;7.50;;
57191;SDS011;43052;52.588;13.396;2022-08-01T06:35:44;8.95;;;6.80;;
57191;SDS011;43052;52.588;13.396;2022-08-01T06:38:09;9.07;;;6.80;;
57191;SDS011;43052;52.588;13.396;2022-08-01T06:40:34;7.43;;;6.05;;
57191;SDS011;43052;52.588;13.396;2022-08-01T06:43:00;7.10;;;5.47;;
57191;SDS011;43052;52.588;13.396;2022-08-01T06:45:25;6.38;;;5.68;;
57191;SDS011;43052;52.588;13.396;2022-08-01T06:47:51;6.60;;;5.47;;
57191;SDS011;43052;52.588;13.396;2022-08-01T06:50:17;6.65;;;5.40;;
57191;SDS011;43052;52.588;13.396;2022-08-01T06:52:42;6.45;;;5.15;;
57191;SDS011;43052;52.588;13.396;2022-08-01T06:55:08;7.00;;;5.32;;
57191;SDS011;43052;52.588;13.396;2022-08-01T06:57:33;6.20;;;5.30;;
57191;SDS011;43052;52.588;13.396;2022-08-01T07:00:00;7.22;;;5.28;;
57191;SDS011;43052;52.588;13.396;2022-08-01T07:02:33;6.28;;;4.95;;
57191;SDS011;43052;52.588;13.396;2022-08-01T07:04:58;7.35;;;4.75;;
57191;SDS011;43052;52.588;13.396;2022-08-01T07:07:25;4.97;;;4.32;;
57191;SDS011;43052;52.588;13.396;2022-08-01T07:09:50;6.15;;;4.38;;
57191;SDS011;43052;52.588;13.396;2022-08-01T07:12:16;5.75;;;4.55;;
57191;SDS011;43052;52.588;13.396;2022-08-01T07:14:41;6.40;;;4.50;;
57191;SDS011;43052;52.588;13.396;2022-08-01T07:17:06;6.32;;;5.25;;
57191;SDS011;43052;52.588;13.396;2022-08-01T07:19:32;6.22;;;4.97;;
57191;SDS011;43052;52.588;13.396;2022-08-01T07:21:58;6.22;;;4.95;;
57191;SDS011;43052;52.588;13.396;2022-08-01T07:24:23;5.53;;;4.82;;
57191;SDS011;43052;52.588;13.396;2022-08-01T07:26:48;6.00;;;5.00;;
57191;SDS011;43052;52.588;13.396;2022-08-01T07:29:14;5.18;;;4.65;;
57191;SDS011;43052;52.588;13.396;2022-08-01T07:31:39;8.40;;;5.07;;
57191;SDS011;43052;52.588;13.396;2022-08-01T07:34:05;6.50;;;4.70;;
57191;SDS011;43052;52.588;13.396;2022-08-01T07:36:30;7.18;;;4.78;;
57191;SDS011;43052;52.588;13.396;2022-08-01T07:38:55;5.43;;;4.70;;
57191;SDS011;43052;52.588;13.396;2022-08-01T07:41:20;5.80;;;5.18;;
57191;SDS011;43052;52.588;13.396;2022-08-01T07:43:46;6.70;;;5.00;;
57191;SDS011;43052;52.588;13.396;2022-08-01T07:46:12;5.72;;;4.40;;
57191;SDS011;43052;52.588;13.396;2022-08-01T07:48:37;5.60;;;4.25;;
57191;SDS011;43052;52.588;13.396;2022-08-01T07:51:02;5.75;;;4.18;;
57191;SDS011;43052;52.588;13.396;2022-08-01T07:53:28;5.20;;;3.75;;
57191;SDS011;43052;52.588;13.396;2022-08-01T07:55:54;5.97;;;4.28;;
57191;SDS011;43052;52.588;13.396;2022-08-01T07:58:19;7.65;;;4.43;;
57191;SDS011;43052;52.588;13.396;2022-08-01T08:00:44;5.75;;;4.20;;
57191;SDS011;43052;52.588;13.396;2022-08-01T08:03:09;5.75;;;4.05;;
57191;SDS011;43052;52.588;13.396;2022-08-01T08:05:35;5.20;;;4.10;;
57191;SDS011;43052;52.588;13.396;2022-08-01T08:08:01;5.80;;;4.10;;
57191;SDS011;43052;52.588;13.396;2022-08-01T08:10:29;4.53;;;3.63;;
57191;SDS011;43052;52.588;13.396;2022-08-01T08:12:54;4.70;;;3.72;;
57191;SDS011;43052;52.588;13.396;2022-08-01T08:15:19;5.97;;;3.90;;
57191;SDS011;43052;52.588;13.396;2022-08-01T08:17:44;6.00;;;4.05;;
57191;SDS011;43052;52.588;13.396;2022-08-01T08:20:10;4.82;;;3.65;;
57191;SDS011;43052;52.588;13.396;2022-08-01T08:22:35;5.43;;;4.05;;
57191;SDS011;43052;52.588;13.396;2022-08-01T08:25:01;6.43;;;3.92;;
57191;SDS011;43052;52.588;13.396;2022-08-01T08:27:27;5.22;;;3.67;;
57191;SDS011;43052;52.588;13.396;2022-08-01T08:29:52;4.25;;;3.20;;
57191;SDS011;43052;52.588;13.396;2022-08-01T08:32:17;4.78;;;3.65;;
57191;SDS011;43052;52.588;13.396;2022-08-01T08:34:43;5.50;;;3.50;;
57191;SDS011;43052;52.588;13.396;2022-08-01T08:37:08;5.20;;;3.45;;
57191;SDS011;43052;52.588;13.396;2022-08-01T08:39:34;4.45;;;3.22;;
57191;SDS011;43052;52.588;13.396;2022-08-01T08:41:59;5.30;;;3.60;;
57191;SDS011;43052;52.588;13.396;2022-08-01T08:44:26;5.30;;;3.05;;
57191;SDS011;43052;52.588;13.396;2022-08-01T08:46:52;4.43;;;2.67;;
57191;SDS011;43052;52.588;13.396;2022-08-01T08:49:27;3.05;;;2.47;;
57191;SDS011;43052;52.588;13.396;2022-08-01T08:51:53;3.22;;;2.53;;
57191;SDS011;43052;52.588;13.396;2022-08-01T08:54:23;4.35;;;2.67;;
57191;SDS011;43052;52.588;13.396;2022-08-01T08:56:49;3.03;;;2.47;;
57191;SDS011;43052;52.588;13.396;2022-08-01T08:59:16;3.17;;;2.40;;
57191;SDS011;43052;52.588;13.396;2022-08-01T09:01:41;3.58;;;2.30;;
57191;SDS011;43052;52.588;13.396;2022-08-01T09:04:07;6.32;;;2.60;;
57191;SDS011;43052;52.588;13.396;2022-08-01T09:06:33;5.97;;;2.53;;
57191;SDS011;43052;52.588;13.396;2022-08-01T09:08:58;2.45;;;2.25;;
57191;SDS011;43052;52.588;13.396;2022-08-01T09:11:25;2.35;;;2.13;;
57191;SDS011;43052;52.588;13.396;2022-08-01T09:19:09;3.88;;;2.10;;
57191;SDS011;43052;52.588;13.396;2022-08-01T09:24:02;3.03;;;2.20;;
57191;SDS011;43052;52.588;13.396;2022-08-01T09:29:00;2.42;;;2.20;;
57191;SDS011;43052;52.588;13.396;2022-08-01T09:31:38;3.30;;;2.70;;
57191;SDS011;43052;52.588;13.396;2022-08-01T09:34:05;4.32;;;2.85;;
57191;SDS011;43052;52.588;13.396;2022-08-01T09:36:48;3.75;;;3.03;;
57191;SDS011;43052;52.588;13.396;2022-08-01T09:39:20;4.70;;;2.90;;
57191;SDS011;43052;52.588;13.396;2022-08-01T09:41:47;3.10;;;2.80;;
57191;SDS011;43052;52.588;13.396;2022-08-01T09:44:13;3.78;;;2.92;;
57191;SDS011;43052;52.588;13.396;2022-08-01T09:46:48;5.05;;;3.10;;
57191;SDS011;43052;52.588;13.396;2022-08-01T09:49:31;3.85;;;3.13;;
57191;SDS011;43052;52.588;13.396;2022-08-01T09:51:59;4.28;;;3.30;;
57191;SDS011;43052;52.588;13.396;2022-08-01T09:54:35;3.67;;;3.25;;
57191;SDS011;43052;52.588;13.396;2022-08-01T09:59:58;4.50;;;2.88;;
57191;SDS011;43052;52.588;13.396;2022-08-01T10:05:01;4.07;;;3.10;;
57191;SDS011;43052;52.588;13.396;2022-08-01T10:07:31;5.28;;;3.28;;
57191;SDS011;43052;52.588;13.396;2022-08-01T10:10:08;4.57;;;3.00;;
57191;SDS011;43052;52.588;13.396;2022-08-01T10:12:34;3.60;;;3.08;;
57191;SDS011;43052;52.588;13.396;2022-08-01T10:15:00;6.15;;;3.25;;
57191;SDS011;43052;52.588;13.396;2022-08-01T10:17:26;3.72;;;3.10;;
57191;SDS011;43052;52.588;13.396;2022-08-01T10:19:51;4.75;;;3.17;;
57191;SDS011;43052;52.588;13.396;2022-08-01T10:22:19;4.60;;;3.05;;
57191;SDS011;43052;52.588;13.396;2022-08-01T10:24:50;5.88;;;3.20;;
57191;SDS011;43052;52.588;13.396;2022-08-01T10:27:20;3.78;;;3.10;;
57191;SDS011;43052;52.588;13.396;2022-08-01T10:29:48;6.00;;;3.33;;
57191;SDS011;43052;52.588;13.396;2022-08-01T10:32:19;4.13;;;3.20;;
57191;SDS011;43052;52.588;13.396;2022-08-01T10:34:45;5.20;;;3.10;;
57191;SDS011;43052;52.588;13.396;2022-08-01T10:37:10;3.50;;;3.20;;
57191;SDS011;43052;52.588;13.396;2022-08-01T10:39:37;3.15;;;2.75;;
57191;SDS011;43052;52.588;13.396;2022-08-01T10:42:04;3.13;;;2.83;;
57191;SDS011;43052;52.588;13.396;2022-08-01T10:44:31;3.03;;;2.72;;
57191;SDS011;43052;52.588;13.396;2022-08-01T10:47:02;3.70;;;2.85;;
57191;SDS011;43052;52.588;13.396;2022-08-01T10:49:31;3.00;;;2.70;;
57191;SDS011;43052;52.588;13.396;2022-08-01T10:52:01;3.13;;;2.58;;
57191;SDS011;43052;52.588;13.396;2022-08-01T10:54:27;3.65;;;2.30;;
57191;SDS011;43052;52.588;13.396;2022-08-01T10:56:52;3.90;;;2.35;;
57191;SDS011;43052;52.588;13.396;2022-08-01T10:59:25;2.60;;;2.40;;
57191;SDS011;43052;52.588;13.396;2022-08-01T11:01:59;3.10;;;2.27;;
57191;SDS011;43052;52.588;13.396;2022-08-01T11:05:11;2.63;;;2.13;;
57191;SDS011;43052;52.588;13.396;2022-08-01T11:07:43;2.30;;;2.10;;
57191;SDS011;43052;52.588;13.396;2022-08-01T11:10:21;3.75;;;2.05;;
57191;SDS011;43052;52.588;13.396;2022-08-01T11:12:54;3.22;;;2.35;;
57191;SDS011;43052;52.588;13.396;2022-08-01T11:15:20;4.57;;;1.98;;
57191;SDS011;43052;52.588;13.396;2022-08-01T11:17:55;2.35;;;1.88;;
57191;SDS011;43052;52.588;13.396;2022-08-01T11:20:22;2.30;;;1.80;;
57191;SDS011;43052;52.588;13.396;2022-08-01T11:30:50;2.30;;;2.05;;
57191;SDS011;43052;52.588;13.396;2022-08-01T11:38:46;3.45;;;2.22;;
57191;SDS011;43052;52.588;13.396;2022-08-01T11:41:29;2.40;;;2.20;;
57191;SDS011;43052;52.588;13.396;2022-08-01T11:43:57;2.63;;;2.00;;
57191;SDS011;43052;52.588;13.396;2022-08-01T11:46:48;2.88;;;2.05;;
57191;SDS011;43052;52.588;13.396;2022-08-01T11:49:27;2.58;;;1.90;;
57191;SDS011;43052;52.588;13.396;2022-08-01T11:52:12;2.00;;;1.80;;
57191;SDS011;43052;52.588;13.396;2022-08-01T11:54:43;1.80;;;1.67;;
57191;SDS011;43052;52.588;13.396;2022-08-01T11:57:20;2.53;;;1.80;;
57191;SDS011;43052;52.588;13.396;2022-08-01T11:59:51;3.50;;;1.90;;
57191;SDS011;43052;52.588;13.396;2022-08-01T12:02:19;1.67;;;1.50;;
57191;SDS011;43052;52.588;13.396;2022-08-01T12:04:47;2.95;;;1.60;;
57191;SDS011;43052;52.588;13.396;2022-08-01T12:07:15;3.20;;;1.77;;
57191;SDS011;43052;52.588;13.396;2022-08-01T12:09:41;2.58;;;2.05;;
57191;SDS011;43052;52.588;13.396;2022-08-01T12:12:06;2.38;;;1.75;;
57191;SDS011;43052;52.588;13.396;2022-08-01T12:14:32;1.60;;;1.50;;
57191;SDS011;43052;52.588;13.396;2022-08-01T12:16:57;1.80;;;1.70;;
57191;SDS011;43052;52.588;13.396;2022-08-01T12:19:23;2.53;;;1.90;;
57191;SDS011;43052;52.588;13.396;2022-08-01T12:22:08;2.28;;;2.00;;
57191;SDS011;43052;52.588;13.396;2022-08-01T12:24:39;1.80;;;1.70;;
57191;SDS011;43052;52.588;13.396;2022-08-01T12:27:05;2.65;;;1.80;;
57191;SDS011;43052;52.588;13.396;2022-08-01T12:29:33;2.65;;;2.13;;
57191;SDS011;43052;52.588;13.396;2022-08-01T12:32:20;2.00;;;1.83;;
57191;SDS011;43052;52.588;13.396;2022-08-01T12:34:47;2.10;;;1.90;;
57191;SDS011;43052;52.588;13.396;2022-08-01T12:37:13;3.38;;;2.00;;
57191;SDS011;43052;52.588;13.396;2022-08-01T12:39:38;3.50;;;2.13;;
57191;SDS011;43052;52.588;13.396;2022-08-01T12:42:06;3.03;;;1.90;;
57191;SDS011;43052;52.588;13.396;2022-08-01T12:44:32;2.50;;;1.98;;
57191;SDS011;43052;52.588;13.396;2022-08-01T12:46:58;2.90;;;2.00;;
57191;SDS011;43052;52.588;13.396;2022-08-01T12:49:26;2.50;;;1.95;;
57191;SDS011;43052;52.588;13.396;2022-08-01T12:51:52;2.58;;;1.90;;
57191;SDS011;43052;52.588;13.396;2022-08-01T12:54:18;2.40;;;1.92;;
57191;SDS011;43052;52.588;13.396;2022-08-01T12:56:43;1.98;;;1.83;;
57191;SDS011;43052;52.588;13.396;2022-08-01T12:59:25;2.92;;;2.10;;
57191;SDS011;43052;52.588;13.396;2022-08-01T13:01:52;2.83;;;2.00;;
57191;SDS011;43052;52.588;13.396;2022-08-01T13:04:18;5.10;;;2.13;;
57191;SDS011;43052;52.588;13.396;2022-08-01T13:06:43;2.55;;;2.10;;
57191;SDS011;43052;52.588;13.396;2022-08-01T13:09:09;3.85;;;2.03;;
57191;SDS011;43052;52.588;13.396;2022-08-01T13:11:38;3.00;;;2.13;;
57191;SDS011;43052;52.588;13.396;2022-08-01T13:14:05;2.60;;;2.10;;
57191;SDS011;43052;52.588;13.396;2022-08-01T13:16:31;3.70;;;2.10;;
57191;SDS011;43052;52.588;13.396;2022-08-01T13:18:56;2.30;;;2.00;;
57191;SDS011;43052;52.588;13.396;2022-08-01T13:21:28;3.65;;;2.10;;
57191;SDS011;43052;52.588;13.396;2022-08-01T13:29:31;3.08;;;2.35;;
57191;SDS011;43052;52.588;13.396;2022-08-01T13:31:58;3.65;;;2.38;;
57191;SDS011;43052;52.588;13.396;2022-08-01T13:34:32;3.10;;;2.80;;
57191;SDS011;43052;52.588;13.396;2022-08-01T13:36:58;4.10;;;3.10;;
57191;SDS011;43052;52.588;13.396;2022-08-01T13:39:24;4.10;;;2.80;;
57191;SDS011;43052;52.588;13.396;2022-08-01T13:42:08;3.97;;;2.88;;
57191;SDS011;43052;52.588;13.396;2022-08-01T13:44:39;4.15;;;2.90;;
57191;SDS011;43052;52.588;13.396;2022-08-01T13:47:05;3.83;;;2.72;;
57191;SDS011;43052;52.588;13.396;2022-08-01T13:49:30;4.40;;;2.88;;
57191;SDS011;43052;52.588;13.396;2022-08-01T13:51:56;4.15;;;2.70;;
57191;SDS011;43052;52.588;13.396;2022-08-01T13:54:22;4.55;;;3.00;;
57191;SDS011;43052;52.588;13.396;2022-08-01T13:56:48;5.57;;;3.03;;
57191;SDS011;43052;52.588;13.396;2022-08-01T13:59:14;3.30;;;3.00;;
57191;SDS011;43052;52.588;13.396;2022-08-01T14:01:39;3.47;;;2.80;;
57191;SDS011;43052;52.588;13.396;2022-08-01T14:04:04;5.55;;;3.13;;
57191;SDS011;43052;52.588;13.396;2022-08-01T14:06:30;3.72;;;2.58;;
57191;SDS011;43052;52.588;13.396;2022-08-01T14:08:56;3.17;;;2.85;;
57191;SDS011;43052;52.588;13.396;2022-08-01T14:11:21;3.85;;;2.75;;
57191;SDS011;43052;52.588;13.396;2022-08-01T14:13:47;3.75;;;2.92;;
57191;SDS011;43052;52.588;13.396;2022-08-01T14:16:12;3.42;;;2.97;;
57191;SDS011;43052;52.588;13.396;2022-08-01T14:18:37;3.22;;;2.47;;
57191;SDS011;43052;52.588;13.396;2022-08-01T14:21:02;3.47;;;2.78;;
57191;SDS011;43052;52.588;13.396;2022-08-01T14:23:28;2.45;;;2.20;;
57191;SDS011;43052;52.588;13.396;2022-08-01T14:25:53;2.85;;;2.47;;
57191;SDS011;43052;52.588;13.396;2022-08-01T14:28:18;3.05;;;2.40;;
57191;SDS011;43052;52.588;13.396;2022-08-01T14:30:50;2.67;;;2.22;;
57191;SDS011;43052;52.588;13.396;2022-08-01T14:33:15;5.07;;;2.88;;
57191;SDS011;43052;52.588;13.396;2022-08-01T14:35:41;3.33;;;2.50;;
57191;SDS011;43052;52.588;13.396;2022-08-01T14:38:06;4.05;;;2.30;;
57191;SDS011;43052;52.588;13.396;2022-08-01T14:40:33;3.97;;;2.20;;
57191;SDS011;43052;52.588;13.396;2022-08-01T14:42:59;3.03;;;2.55;;
57191;SDS011;43052;52.588;13.396;2022-08-01T14:45:26;3.78;;;2.22;;
57191;SDS011;43052;52.588;13.396;2022-08-01T14:47:51;2.67;;;2.30;;
57191;SDS011;43052;52.588;13.396;2022-08-01T14:50:17;3.67;;;2.50;;
57191;SDS011;43052;52.588;13.396;2022-08-01T14:52:42;2.58;;;2.38;;
57191;SDS011;43052;52.588;13.396;2022-08-01T14:55:09;2.65;;;2.35;;
57191;SDS011;43052;52.588;13.396;2022-08-01T14:57:35;2.42;;;2.10;;
57191;SDS011;43052;52.588;13.396;2022-08-01T15:00:02;3.58;;;2.42;;
57191;SDS011;43052;52.588;13.396;2022-08-01T15:02:29;2.35;;;2.10;;
57191;SDS011;43052;52.588;13.396;2022-08-01T15:04:54;2.50;;;2.00;;
57191;SDS011;43052;52.588;13.396;2022-08-01T15:07:20;4.55;;;2.13;;
57191;SDS011;43052;52.588;13.396;2022-08-01T15:09:45;2.78;;;1.92;;
57191;SDS011;43052;52.588;13.396;2022-08-01T15:12:11;2.85;;;1.70;;
57191;SDS011;43052;52.588;13.396;2022-08-01T15:14:36;1.92;;;1.75;;
57191;SDS011;43052;52.588;13.396;2022-08-01T15:19:47;1.65;;;1.55;;